Airfield :
LOGIN :

Register | Disclaimer

   EN    FR    IT 

 










Legend :    VFR   Marginal VFR   IFR   Intensive IFR   Very Intensive IFR
Visi :
Ceiling :
>= 8 km
>= 3000ft
5 to 8 km
1000 to 3000 ft
1500m to 5 km
500 to 1000 ft
800 to 1500m
200 to 500 ft
< 800m
< 200 ft
Symbols :   Thunderstorms  Fog  Heavy snow  Heavy precipitations  Wind > 20 kt
SIGMETs :     Misc.  Thunderstorms  Icing  Turbulence  Mountain Waves  Volcanic Ashes







- Airport Elevation : 2945 ft
- IATA code : RGS


LEBG - Burgos

CURRENT METAR :
  • 160800Z 00000KT 7000 0100E R22/0300N PRFG NSC M04/M05 Q1017

EXPIRED METARs :
  • 160747Z 00000KT 6000 0100NE R22/0300N BCFG NSC M04/M05 Q1017
  • 160730Z 00000KT 0050 R22/0275N R04/0075N FZFG VV001 M04/M05 Q1017
  • 160700Z 00000KT 0100 R22/0300N R04/0125N FZFG VV001 M04/M05 Q1017
  • 160630Z 00000KT 0100 R22/0300N R04/0125N FZFG VV001 M04/M04 Q1017
  • 160600Z VRB02KT 0200 R22/0550N R04/0225N FZFG VV002 M03/M03 Q1017
  • 160530Z AUTO 00000KT 0550 0250 R22/0500D R04/0550N FZFG VV001 M03/M04 Q1017

TAF TAF LEBG
Valid from the 16 at 09:00 until the 16 at 18:00 UTC


160800Z 1609/1618 VRB04KT 0300 FZFG VV001
TEMPO 1609/1611 1400 BCFG
BECMG 1610/1612 2500 BR BKN008
BECMG 1611/1613 9999 NSW SCT012
PROB40
TEMPO 1616/1618 0800 FG BKN008
No reported NOTAMs for that airfield.



MET'MAP, your aeronautical weather chart ! - Copyright ORBIFLY December 2007 - Disclaimer

ORBIFLY MET'MAP TEAM :

Programming & Development : Alexandra Zaïnal
Concept & Development : Baudouin d'Aumeries
Co-Development & Prog : Marc-Olivier Méhu
Technical & hardware support : Manuel Goepfert

Contact : metmap@orbifly.com




SOURCES & CREDITS :

   NOAA